METAR-Meldungen aus der Umgebung

   
EDMO - Oberpfaffenhofen, Germany
Entfernung von der Station bis: SSO 18 km
Aktualisierung: 27-01-2020 14:20
Klar  
Klar  
   Wind: SSW 7.4 km/h
Wind: SSW 7.4 km/h
Temperatur: 9°C
Gefühlt: 8°C
Taupunkt: 1°C
Luftfeuchte: 58%
Luftdruck: 1013 hPa
Sichtbarkeit: Mehr als 10 km
Bewölkung: Klar ft
EDMO 271320Z 20004KT 150V240 CAVOK 09/01 Q1013
ETSL - Lechfeld (ger-Af, Germany
Entfernung von der Station bis: WSW 23 km
Aktualisierung: 27-01-2020 14:20
Stark bewölkt  
Stark bewölkt  
   Wind: SW 13 km/h
Wind: SW 13 km/h
Temperatur: 10°C
Gefühlt: 8°C
Taupunkt: 1°C
Luftfeuchte: 54%
Luftdruck: 1012 hPa
Bewölkt: Mostly Cloudy
Sichtbarkeit: Mehr als 10 km
Bewölkung: leicht bewölkt 3000 ft,
Teilweise bewölkt 9000 ft,
Stark bewölkt 30000 ft
ETSL 271320Z 23007KT 9999 FEW030 SCT090 BKN300 10/01 Q1012 BLU+BLU+
EDMA - Augsburg/Mulhaus, Germany
Entfernung von der Station bis: NW 30 km
Aktualisierung: 27-01-2020 14:20
Klar  
Klar  
   Wind: SW 11.1 km/h
Wind: SW 11.1 km/h
Temperatur: 10°C
Gefühlt: 8°C
Taupunkt: 2°C
Luftfeuchte: 58%
Luftdruck: 1012 hPa
Sichtbarkeit: Mehr als 10 km
Bewölkung: Klar ft
EDMA 271320Z 22006KT CAVOK 10/02 Q1012
ETHA - Altenstadt/Schon, Germany
Entfernung von der Station bis: SSW 49 km
Aktualisierung: 27-01-2020 14:20
Stark bewölkt  
Stark bewölkt  
   Wind: SSW 1.9 km/h
Wind: SSW 1.9 km/h
Temperatur: 9°C
Taupunkt: 0°C
Luftfeuchte: 54%
Luftdruck: 1012 hPa
Bewölkt: Mostly Cloudy
Sichtbarkeit: Mehr als 10 km
Bewölkung: leicht bewölkt 3000 ft,
Stark bewölkt 30000 ft
ETHA 271320Z 21001KT 9999 FEW030 BKN300 09/M00 Q1012 BLU+BLU+
EDDM - Munich-Flughafen, Germany
Entfernung von der Station bis: ONO 50 km
Aktualisierung: 27-01-2020 14:20
Klar  
Klar  
   Wind: WSW 13 km/h
Wind: WSW 13 km/h
Temperatur: 10°C
Gefühlt: 8°C
Taupunkt: 2°C
Luftfeuchte: 58%
Luftdruck: 1013 hPa
Sichtbarkeit: Mehr als 10 km
Bewölkung: Klar ft
EDDM 271320Z 25007KT 190V270 CAVOK 10/02 Q1013 NOSIG
 

Script entwickelt von  Saratoga-weather.org Angepasst für das Template von  Weerstation Leuven